CYPR/YPR METAR and TAF weather

Enter ICAO airport designator
Station Type Date Time Source
CYPR METAR 2019/10/18 06:11 UTC NOAA

CYPR 180611Z AUTO 15009KT 5SM -RA BR OVC046 08/07 A2919 RMK SLP887


Station Type Date Time Source
CYPR Decoded METAR 2019/10/18 06:11 UTC NOAA

Prince Rupert, B. C., Canada (CYPR) 54-18N 130-26W 34M
Oct 18, 2019 - 02:11 AM EDT / 2019.10.18 0611 UTC
Wind: from the SSE (150 degrees) at 10 MPH (9 KT):0
Visibility: 5 mile(s):0
Sky conditions: overcast
Weather: light rain; mist
Temperature: 46 F (8 C)
Dew Point: 44 F (7 C)
Relative Humidity: 93%
Pressure (altimeter): 29.19 in. Hg (988 hPa)
ob: CYPR 180611Z AUTO 15009KT 5SM -RA BR OVC046 08/07 A2919 RMK SLP887
cycle: 6

Station Type Date Time Source
CYPR TAF 2019/10/18 01:42 UTC NOAA

TAF CYPR 180040Z 1801/1813 13005KT P6SM SCT015 BKN040
TEMPO 1801/1803 BKN015 BKN040
FM180300 VRB03KT P6SM -SHRA OVC030
TEMPO 1803/1813 4SM -SHRA BR OVC015
BECMG 1806/1808 26008G18KT
RMK FCST BASED ON AUTO OBS. NXT FCST BY 180700Z

Example: see airport list